createdAt,value
2023-01-13T00:02:03.149Z,95225.53
2023-01-13T00:04:29.511Z,95218.86
2023-01-13T00:06:55.806Z,95224.38
2023-01-13T00:09:22.250Z,95227.05
2023-01-13T00:11:48.598Z,95227.41
2023-01-13T00:14:14.956Z,95228.10
2023-01-13T00:16:41.421Z,95232.33
2023-01-13T00:19:07.749Z,95226.35
2023-01-13T00:21:34.080Z,95228.09
2023-01-13T00:24:00.447Z,95227.86
2023-01-13T00:26:26.924Z,95225.05
2023-01-13T00:28:53.272Z,95230.53
2023-01-13T00:31:19.725Z,95229.98
2023-01-13T00:33:46.073Z,95231.73
2023-01-13T00:36:14.387Z,95234.41
2023-01-13T00:38:38.739Z,95228.45
2023-01-13T00:41:05.084Z,95231.96
2023-01-13T00:43:31.449Z,95228.55
2023-01-13T00:45:57.907Z,95222.94
2023-01-13T00:48:24.256Z,95229.25
2023-01-13T00:50:50.584Z,95229.84
2023-01-13T00:53:16.971Z,95229.25
2023-01-13T00:55:43.353Z,95225.52
2023-01-13T00:58:09.722Z,95224.91
2023-01-13T01:00:36.211Z,95226.90
2023-01-13T01:03:02.488Z,95221.06
2023-01-13T01:05:28.852Z,95216.49
2023-01-13T01:07:55.226Z,95221.37
2023-01-13T01:10:21.654Z,95212.63
2023-01-13T01:12:47.976Z,95216.83
2023-01-13T01:15:14.342Z,95208.17
2023-01-13T01:17:40.682Z,95209.33
2023-01-13T01:20:07.035Z,95209.56
2023-01-13T01:22:33.448Z,95205.09
2023-01-13T01:24:59.777Z,95207.66
2023-01-13T01:27:26.175Z,95203.11
2023-01-13T01:29:52.583Z,95204.77
2023-01-13T01:32:19.030Z,95201.23
2023-01-13T01:34:45.430Z,95201.50
2023-01-13T01:37:11.829Z,95206.89
2023-01-13T01:39:38.242Z,95199.11
2023-01-13T01:42:04.595Z,95198.78
2023-01-13T01:44:30.924Z,95193.04
2023-01-13T01:46:57.343Z,95195.39
2023-01-13T01:49:23.637Z,95187.66
2023-01-13T01:51:50.065Z,95191.16
2023-01-13T01:54:16.404Z,95189.08
2023-01-13T01:56:42.770Z,95194.10
2023-01-13T01:59:09.112Z,95193.52
2023-01-13T02:01:35.535Z,95191.30
2023-01-13T02:04:01.794Z,95194.19
2023-01-13T02:06:28.147Z,95193.36
2023-01-13T02:08:54.483Z,95195.98
2023-01-13T02:11:20.829Z,95191.66
2023-01-13T02:13:47.200Z,95188.59
2023-01-13T02:16:13.567Z,95190.70
2023-01-13T02:18:39.882Z,95183.93
2023-01-13T02:21:06.219Z,95183.93
2023-01-13T02:23:32.600Z,95186.73
2023-01-13T02:25:58.957Z,95187.66
2023-01-13T02:28:25.312Z,95184.62
2023-01-13T02:30:51.680Z,95183.29
2023-01-13T02:33:18.016Z,95179.55
2023-01-13T02:35:44.384Z,95184.02
2023-01-13T02:38:10.799Z,95187.89
2023-01-13T02:40:37.157Z,95183.80
2023-01-13T02:43:03.533Z,95186.73
2023-01-13T02:45:29.949Z,95189.41
2023-01-13T02:47:56.245Z,95187.89
2023-01-13T02:50:22.644Z,95186.69
2023-01-13T02:52:48.977Z,95186.91
2023-01-13T02:55:15.319Z,95178.50
2023-01-13T02:57:41.651Z,95183.52
2023-01-13T03:00:08.021Z,95185.53
2023-01-13T03:02:34.492Z,95190.59
2023-01-13T03:05:00.858Z,95188.56
2023-01-13T03:07:27.189Z,95187.28
2023-01-13T03:09:53.631Z,95183.66
2023-01-13T03:12:19.983Z,95182.50
2023-01-13T03:14:46.491Z,95188.80
2023-01-13T03:17:12.859Z,95183.66
2023-01-13T03:19:39.180Z,95183.88
2023-01-13T03:22:05.566Z,95182.73
2023-01-13T03:24:31.950Z,95186.36
2023-01-13T03:26:58.354Z,95188.70
2023-01-13T03:29:24.745Z,95184.39
2023-01-13T03:31:51.141Z,95191.16
2023-01-13T03:34:17.524Z,95187.42
2023-01-13T03:36:43.899Z,95185.55
2023-01-13T03:39:10.244Z,95189.50
2023-01-13T03:41:39.418Z,95191.66
2023-01-13T03:44:05.852Z,95193.27
2023-01-13T03:46:32.286Z,95193.36
2023-01-13T03:48:58.606Z,95194.65
2023-01-13T03:51:25.009Z,95199.00
2023-01-13T03:53:51.339Z,95196.06
2023-01-13T03:56:17.756Z,95195.94
2023-01-13T03:58:44.189Z,95200.30
2023-01-13T04:01:10.707Z,95199.00
2023-01-13T04:03:37.078Z,95196.89
2023-01-13T04:06:03.340Z,95199.70
2023-01-13T04:08:29.719Z,95191.87
2023-01-13T04:10:56.192Z,95198.10
2023-01-13T04:13:22.666Z,95200.91
2023-01-13T04:15:49.127Z,95196.67
2023-01-13T04:18:15.511Z,95196.09
2023-01-13T04:20:41.939Z,95202.52
2023-01-13T04:23:08.281Z,95205.70
2023-01-13T04:25:34.669Z,95212.27
2023-01-13T04:28:01.016Z,95217.50
2023-01-13T04:30:27.425Z,95215.20
2023-01-13T04:32:53.768Z,95209.33
2023-01-13T04:35:20.170Z,95213.69
2023-01-13T04:37:46.562Z,95215.08
2023-01-13T04:40:13.048Z,95219.64
2023-01-13T04:42:39.362Z,95209.46
2023-01-13T04:45:05.746Z,95214.16
2023-01-13T04:47:32.080Z,95214.11
2023-01-13T04:49:58.493Z,95212.04
2023-01-13T04:52:24.854Z,95212.41
2023-01-13T04:54:51.240Z,95223.41
2023-01-13T04:57:18.540Z,95216.73
2023-01-13T04:59:45.184Z,95221.04
2023-01-13T05:02:10.411Z,95216.22
2023-01-13T05:04:36.859Z,95219.63
2023-01-13T05:07:03.176Z,95221.52
2023-01-13T05:09:29.594Z,95226.12
2023-01-13T05:11:55.924Z,95227.51
2023-01-13T05:14:23.669Z,95225.15
2023-01-13T05:16:48.744Z,95229.94
2023-01-13T05:19:15.270Z,95223.86
2023-01-13T05:21:41.596Z,95231.28
2023-01-13T05:24:07.975Z,95225.44
2023-01-13T05:26:34.358Z,95222.73
2023-01-13T05:29:00.789Z,95228.84
2023-01-13T05:33:53.422Z,95228.97
2023-01-13T05:36:19.747Z,95223.69
2023-01-13T05:38:46.166Z,95232.84
2023-01-13T05:41:12.520Z,95232.02
2023-01-13T05:43:38.892Z,95237.77
2023-01-13T05:46:05.347Z,95236.16
2023-01-13T05:48:31.819Z,95237.91
2023-01-13T05:50:58.139Z,95243.52
2023-01-13T05:53:24.595Z,95239.06
2023-01-13T05:55:50.934Z,95243.30
2023-01-13T05:58:17.367Z,95248.22
2023-01-13T06:00:43.703Z,95243.92
2023-01-13T06:03:10.220Z,95243.23
2023-01-13T06:05:36.514Z,95247.59
2023-01-13T06:08:02.894Z,95250.63
2023-01-13T06:10:29.387Z,95254.29
2023-01-13T06:12:55.761Z,95252.40
2023-01-13T06:15:22.152Z,95254.05
2023-01-13T06:17:48.564Z,95249.72
2023-01-13T06:20:14.902Z,95253.35
2023-01-13T06:22:41.381Z,95260.03
2023-01-13T06:25:07.734Z,95261.91
2023-01-13T06:27:34.117Z,95255.69
2023-01-13T06:30:00.503Z,95256.41
2023-01-13T06:32:26.945Z,95255.81
2023-01-13T06:34:53.288Z,95258.39
2023-01-13T06:37:19.692Z,95256.04
2023-01-13T06:39:46.031Z,95259.91
2023-01-13T06:42:12.414Z,95260.14
2023-01-13T06:44:38.798Z,95261.09
2023-01-13T06:47:05.250Z,95263.91
2023-01-13T06:49:31.627Z,95264.38
2023-01-13T06:51:58.029Z,95270.25
2023-01-13T06:54:25.343Z,95266.96
2023-01-13T06:56:50.841Z,95265.09
2023-01-13T06:59:17.243Z,95269.80
2023-01-13T07:01:43.810Z,95269.42
2023-01-13T07:04:10.114Z,95264.48
2023-01-13T07:06:36.592Z,95266.50
2023-01-13T07:09:03.079Z,95268.48
2023-01-13T07:11:29.326Z,95265.10
2023-01-13T07:13:55.655Z,95268.13
2023-01-13T07:16:22.253Z,95265.20
2023-01-13T07:18:48.571Z,95267.06
2023-01-13T07:21:15.024Z,95267.06
2023-01-13T07:23:41.474Z,95263.78
2023-01-13T07:26:07.913Z,95266.60
2023-01-13T07:28:35.573Z,95263.31
2023-01-13T07:31:00.671Z,95267.53
2023-01-13T07:33:27.024Z,95264.50
2023-01-13T07:35:53.427Z,95267.69
2023-01-13T07:38:19.821Z,95266.26
2023-01-13T07:40:46.201Z,95266.38
2023-01-13T07:43:12.557Z,95264.83
2023-01-13T07:45:38.978Z,95262.14
2023-01-13T07:48:05.449Z,95255.06
2023-01-13T07:50:31.848Z,95258.59
2023-01-13T07:52:58.183Z,95260.82
2023-01-13T07:55:24.671Z,95260.70
2023-01-13T07:57:50.989Z,95264.78
2023-01-13T08:00:17.390Z,95259.05
2023-01-13T08:02:43.808Z,95261.02
2023-01-13T08:05:10.154Z,95266.55
2023-01-13T08:07:36.629Z,95271.47
2023-01-13T08:10:02.985Z,95270.03
2023-01-13T08:12:29.342Z,95271.22
2023-01-13T08:14:55.783Z,95276.38
2023-01-13T08:17:22.172Z,95270.78
2023-01-13T08:19:48.663Z,95273.80
2023-01-13T08:22:15.004Z,95274.16
2023-01-13T08:24:41.442Z,95273.11
2023-01-13T08:27:07.780Z,95270.37
2023-01-13T08:29:34.207Z,95273.55
2023-01-13T08:32:00.525Z,95271.00
2023-01-13T08:34:26.949Z,95268.36
2023-01-13T08:36:53.289Z,95268.50
2023-01-13T08:39:19.666Z,95272.41
2023-01-13T08:41:46.039Z,95264.52
2023-01-13T08:44:12.437Z,95264.30
2023-01-13T08:46:38.857Z,95266.17
2023-01-13T08:49:05.211Z,95258.30
2023-01-13T08:51:31.680Z,95262.38
2023-01-13T08:53:58.071Z,95259.47
2023-01-13T08:56:24.441Z,95256.88
2023-01-13T08:58:50.824Z,95263.45
2023-01-13T09:01:17.511Z,95258.14
2023-01-13T09:03:43.673Z,95258.28
2023-01-13T09:06:10.098Z,95256.99
2023-01-13T09:08:36.459Z,95254.73
2023-01-13T09:11:02.985Z,95254.73
2023-01-13T09:13:29.335Z,95252.27
2023-01-13T09:15:55.787Z,95252.84
2023-01-13T09:18:24.869Z,95249.89
2023-01-13T09:20:51.097Z,95251.19
2023-01-13T09:23:17.444Z,95252.27
2023-01-13T09:25:43.855Z,95244.98
2023-01-13T09:28:10.218Z,95245.20
2023-01-13T09:30:36.667Z,95239.78
2023-01-13T09:33:03.027Z,95213.91
2023-01-13T09:35:29.428Z,95213.91
2023-01-13T09:37:55.776Z,95237.08
2023-01-13T09:40:22.372Z,95239.74
2023-01-13T09:42:48.688Z,95239.74
2023-01-13T09:45:15.076Z,95228.30
2023-01-13T09:47:41.415Z,95245.77
2023-01-13T09:50:07.920Z,95225.81
2023-01-13T09:52:34.263Z,95233.92
2023-01-13T09:55:00.695Z,95233.92
2023-01-13T09:57:27.080Z,95216.38
2023-01-13T09:59:53.474Z,95216.38
2023-01-13T10:02:19.827Z,95236.27
2023-01-13T10:04:46.252Z,95233.42
2023-01-13T10:07:12.606Z,95233.42
2023-01-13T10:09:39.052Z,95237.66
2023-01-13T10:12:05.397Z,95234.00
2023-01-13T10:14:31.819Z,95234.00
2023-01-13T10:16:58.188Z,95231.45
2023-01-13T10:19:24.705Z,95233.06
2023-01-13T10:21:51.128Z,95222.37
2023-01-13T10:24:17.499Z,95222.37
2023-01-13T10:26:43.864Z,95228.47
2023-01-13T10:29:10.260Z,95220.47
2023-01-13T10:31:36.631Z,95223.52
2023-01-13T10:34:03.204Z,95212.03
2023-01-13T10:36:29.595Z,95209.34
2023-01-13T10:38:57.833Z,95218.20
2023-01-13T10:41:24.551Z,95218.20
2023-01-13T10:43:50.979Z,95220.10
2023-01-13T10:46:17.443Z,95221.21
2023-01-13T10:48:43.759Z,95221.41
2023-01-13T10:51:10.093Z,95216.03
2023-01-13T10:53:36.515Z,95215.10
2023-01-13T10:56:02.871Z,95212.62
2023-01-13T10:58:29.283Z,95206.52
2023-01-13T11:00:55.655Z,95204.61
2023-01-13T11:03:22.005Z,95204.61
2023-01-13T11:05:48.379Z,95205.70
2023-01-13T11:08:14.781Z,95205.70
2023-01-13T11:10:41.112Z,95207.69
2023-01-13T11:13:07.534Z,95207.69
2023-01-13T11:15:33.909Z,95204.97
2023-01-13T11:18:00.382Z,95197.66
2023-01-13T11:20:26.779Z,95196.83
2023-01-13T11:22:53.270Z,95185.30
2023-01-13T11:25:19.607Z,95140.30
2023-01-13T11:27:46.039Z,95140.30
2023-01-13T11:30:15.157Z,95183.88
2023-01-13T11:32:41.644Z,95187.23
2023-01-13T11:35:08.050Z,95184.55
2023-01-13T11:37:34.418Z,95180.41
2023-01-13T11:40:00.883Z,95167.91
2023-01-13T11:42:27.270Z,95167.91
2023-01-13T11:44:53.585Z,95176.27
2023-01-13T11:47:19.969Z,95164.70
2023-01-13T11:49:46.496Z,95173.73
2023-01-13T11:52:12.993Z,95178.18
2023-01-13T11:54:39.378Z,95169.34
2023-01-13T11:57:05.752Z,95168.48
2023-01-13T11:59:32.114Z,95168.48
2023-01-13T12:01:58.644Z,95174.94
2023-01-13T12:04:24.955Z,95161.54
2023-01-13T12:06:51.458Z,95174.67
2023-01-13T12:09:17.822Z,95169.64
2023-01-13T12:11:44.229Z,95149.45
2023-01-13T12:14:11.835Z,95168.87
2023-01-13T12:16:37.060Z,95164.80
2023-01-13T12:19:03.429Z,95165.02
2023-01-13T12:21:29.847Z,95159.32
2023-01-13T12:23:56.185Z,95163.44
2023-01-13T12:26:22.651Z,95159.52
2023-01-13T12:28:49.133Z,95154.47
2023-01-13T12:31:15.470Z,95151.14
2023-01-13T12:33:41.801Z,95151.14
2023-01-13T12:36:08.174Z,95157.09
2023-01-13T12:38:34.582Z,95145.05
2023-01-13T12:41:00.950Z,95162.36
2023-01-13T12:43:27.275Z,95161.14
2023-01-13T12:45:53.826Z,95161.14
2023-01-13T12:48:20.119Z,95165.52
2023-01-13T12:50:46.536Z,95166.93
2023-01-13T12:53:12.957Z,95171.67
2023-01-13T12:55:39.353Z,95168.78
2023-01-13T12:58:05.714Z,95170.68
2023-01-13T13:00:32.072Z,95166.81
2023-01-13T13:02:59.675Z,95138.19
2023-01-13T13:05:24.831Z,95158.23
2023-01-13T13:07:51.158Z,95173.39
2023-01-13T13:10:17.546Z,95178.50
2023-01-13T13:12:44.069Z,95174.88
2023-01-13T13:15:10.455Z,95176.90
2023-01-13T13:17:36.774Z,95178.09
2023-01-13T13:20:03.157Z,95183.01
2023-01-13T13:22:29.603Z,95182.88
2023-01-13T13:24:55.966Z,95187.96
2023-01-13T13:27:22.313Z,95186.50
2023-01-13T13:29:48.769Z,95161.18
2023-01-13T13:32:15.180Z,95188.22
2023-01-13T13:34:41.561Z,95187.48
2023-01-13T13:37:07.895Z,95187.23
2023-01-13T13:39:34.281Z,95185.79
2023-01-13T13:42:00.646Z,95188.27
2023-01-13T13:44:27.029Z,95184.64
2023-01-13T13:46:53.499Z,95189.41
2023-01-13T13:49:19.984Z,95193.84
2023-01-13T13:51:46.420Z,95192.61
2023-01-13T13:54:12.694Z,95183.60
2023-01-13T13:56:39.078Z,95192.82
2023-01-13T13:59:05.531Z,95193.90
2023-01-13T14:01:31.941Z,95194.98
2023-01-13T14:03:58.322Z,95189.61
2023-01-13T14:06:24.651Z,95190.43
2023-01-13T14:08:51.323Z,95193.48
2023-01-13T14:11:17.601Z,95190.13
2023-01-13T14:13:44.010Z,95199.36
2023-01-13T14:16:10.462Z,95195.02
2023-01-13T14:18:36.849Z,95198.00
2023-01-13T14:21:03.172Z,95184.64
2023-01-13T14:23:29.552Z,95196.91
2023-01-13T14:25:55.944Z,95197.52
2023-01-13T14:28:22.365Z,95194.25
2023-01-13T14:30:48.804Z,95196.59
2023-01-13T14:33:15.148Z,95196.59
2023-01-13T14:35:41.613Z,95199.79
2023-01-13T14:38:07.949Z,95204.53
2023-01-13T14:40:34.390Z,95199.05
2023-01-13T14:43:00.722Z,95200.09
2023-01-13T14:45:27.050Z,95202.60
2023-01-13T14:47:53.523Z,95201.63
2023-01-13T14:50:19.886Z,95198.33
2023-01-13T14:52:46.277Z,95199.05
2023-01-13T14:55:12.596Z,95201.13
2023-01-13T14:57:38.981Z,95204.32
2023-01-13T15:00:05.327Z,95207.87
2023-01-13T15:02:33.467Z,95193.70
2023-01-13T15:04:58.250Z,95194.06
2023-01-13T15:07:24.646Z,95194.06
2023-01-13T15:09:50.990Z,95214.59
2023-01-13T15:12:17.371Z,95203.93
2023-01-13T15:14:43.809Z,95203.93
2023-01-13T15:17:10.320Z,95217.53
2023-01-13T15:19:36.688Z,95213.08
2023-01-13T15:22:03.112Z,95220.47
2023-01-13T15:24:29.457Z,95220.47
2023-01-13T15:26:55.923Z,95193.88
2023-01-13T15:29:23.749Z,95193.88
2023-01-13T15:31:48.827Z,95221.66
2023-01-13T15:34:15.215Z,95206.87
2023-01-13T15:36:41.585Z,95206.87
2023-01-13T15:39:07.925Z,95224.23
2023-01-13T15:41:34.304Z,95216.84
2023-01-13T15:44:00.699Z,95216.84
2023-01-13T15:46:27.102Z,95206.87
2023-01-13T15:48:54.801Z,95210.42
2023-01-13T15:51:19.877Z,95221.90
2023-01-13T15:53:47.446Z,95198.22
2023-01-13T15:56:12.648Z,95198.22
2023-01-13T15:58:39.115Z,95221.54
2023-01-13T16:01:05.719Z,95226.98
2023-01-13T16:03:31.875Z,95226.52
2023-01-13T16:05:58.271Z,95225.80
2023-01-13T16:08:24.706Z,95210.01
2023-01-13T16:10:53.052Z,95220.63
2023-01-13T16:13:17.643Z,95217.17
2023-01-13T16:15:44.107Z,95229.95
2023-01-13T16:18:10.449Z,95230.19
2023-01-13T16:20:36.849Z,95230.19
2023-01-13T16:23:03.190Z,95224.45
2023-01-13T16:25:29.748Z,95222.80
2023-01-13T16:27:56.143Z,95222.80
2023-01-13T16:30:22.523Z,95218.23
2023-01-13T16:32:50.096Z,95218.23
2023-01-13T16:35:15.387Z,95219.53
2023-01-13T16:37:41.720Z,95227.27
2023-01-13T16:40:08.104Z,95227.25
2023-01-13T16:42:34.445Z,95205.71
2023-01-13T16:45:00.839Z,95228.44
2023-01-13T16:47:28.281Z,95224.92
2023-01-13T16:49:53.562Z,95211.67
2023-01-13T16:52:19.956Z,95211.67
2023-01-13T16:54:46.359Z,95227.03
2023-01-13T16:57:12.707Z,95225.16
2023-01-13T16:59:39.104Z,95219.99
2023-01-13T17:02:05.440Z,95219.53
2023-01-13T17:04:31.820Z,95219.53
2023-01-13T17:06:58.167Z,95225.41
2023-01-13T17:09:24.710Z,95225.41
2023-01-13T17:11:51.037Z,95216.39
2023-01-13T17:14:19.306Z,95225.08
2023-01-13T17:16:43.800Z,95227.52
2023-01-13T17:19:10.231Z,95224.81
2023-01-13T17:21:36.618Z,95220.04
2023-01-13T17:24:03.020Z,95220.04
2023-01-13T17:26:30.376Z,95221.19
2023-01-13T17:28:55.823Z,95217.22
2023-01-13T17:31:22.251Z,95211.95
2023-01-13T17:33:48.654Z,95211.95
2023-01-13T17:36:14.983Z,95214.76
2023-01-13T17:38:41.371Z,95214.76
2023-01-13T17:41:07.711Z,95223.66
2023-01-13T17:43:34.117Z,95222.02
2023-01-13T17:46:00.488Z,95223.66
2023-01-13T17:48:26.836Z,95223.66
2023-01-13T17:50:53.256Z,95223.66
2023-01-13T17:53:19.647Z,95225.19
2023-01-13T17:55:45.987Z,95227.89
2023-01-13T17:58:12.384Z,95227.89
2023-01-13T18:00:38.780Z,95229.64
2023-01-13T18:03:05.244Z,95233.33
2023-01-13T18:05:33.128Z,95224.04
2023-01-13T18:07:58.024Z,95227.32
2023-01-13T18:10:24.391Z,95223.09
2023-01-13T18:12:50.835Z,95230.59
2023-01-13T18:15:17.324Z,95239.30
2023-01-13T18:17:47.268Z,95239.30
2023-01-13T18:20:12.233Z,95240.69
2023-01-13T18:22:38.624Z,95238.94
2023-01-13T18:25:04.951Z,95237.05
2023-01-13T18:27:31.475Z,95219.80
2023-01-13T18:29:57.990Z,95219.80
2023-01-13T18:32:24.341Z,95237.06
2023-01-13T18:35:01.656Z,95237.06
2023-01-13T18:37:17.122Z,95236.23
2023-01-13T18:39:43.468Z,95236.59
2023-01-13T18:42:10.073Z,95236.59
2023-01-13T18:44:36.417Z,95237.77
2023-01-13T18:47:02.830Z,95240.94
2023-01-13T18:49:29.181Z,95248.81
2023-01-13T18:51:55.572Z,95241.88
2023-01-13T18:54:21.929Z,95225.55
2023-01-13T18:56:48.332Z,95234.34
2023-01-13T18:59:14.674Z,95234.14
2023-01-13T19:01:41.192Z,95231.92
2023-01-13T19:04:07.417Z,95233.30
2023-01-13T19:06:33.879Z,95237.55
2023-01-13T19:09:00.194Z,95237.55
2023-01-13T19:11:26.600Z,95229.87
2023-01-13T19:13:52.939Z,95225.47
2023-01-13T19:16:19.416Z,95207.52
2023-01-13T19:18:45.740Z,95207.52
2023-01-13T19:21:12.253Z,95220.29
2023-01-13T19:23:38.717Z,95220.29
2023-01-13T19:26:05.016Z,95214.89
2023-01-13T19:28:31.598Z,95214.30
2023-01-13T19:30:57.941Z,95213.83
2023-01-13T19:33:24.319Z,95223.20
2023-01-13T19:35:50.654Z,95223.20
2023-01-13T19:38:17.045Z,95223.42
2023-01-13T19:40:43.433Z,95219.47
2023-01-13T19:43:09.926Z,95218.05
2023-01-13T19:45:36.332Z,95221.23
2023-01-13T19:48:02.727Z,95219.11
2023-01-13T19:50:29.149Z,95213.95
2023-01-13T19:52:55.544Z,95217.83
2023-01-13T19:55:21.914Z,95217.47
2023-01-13T19:57:48.320Z,95215.95
2023-01-13T20:00:14.695Z,95218.17
2023-01-13T20:02:41.095Z,95218.31
2023-01-13T20:05:07.441Z,95214.77
2023-01-13T20:07:33.833Z,95215.37
2023-01-13T20:10:00.227Z,95211.14
2023-01-13T20:12:26.623Z,95215.97
2023-01-13T20:14:52.969Z,95215.24
2023-01-13T20:20:04.725Z,95212.43
2023-01-13T20:22:31.106Z,95217.61
2023-01-13T20:24:57.445Z,95215.03
2023-01-13T20:27:23.897Z,95200.48
2023-01-13T20:29:50.216Z,95200.48
2023-01-13T20:32:16.597Z,95211.05
2023-01-13T20:34:42.985Z,95213.72
2023-01-13T20:37:09.368Z,95209.75
2023-01-13T20:39:35.745Z,95215.01
2023-01-13T20:42:02.140Z,95210.45
2023-01-13T20:44:28.479Z,95212.57
2023-01-13T20:46:54.943Z,95206.58
2023-01-13T20:49:21.237Z,95204.25
2023-01-13T20:51:47.634Z,95202.70
2023-01-13T20:54:14.007Z,95198.83
2023-01-13T20:56:40.482Z,95201.41
2023-01-13T20:59:06.853Z,95204.48
2023-01-13T21:01:33.263Z,95206.35
2023-01-13T21:03:59.624Z,95200.97
2023-01-13T21:06:25.958Z,95200.14
2023-01-13T21:08:52.320Z,95200.01
2023-01-13T21:11:18.755Z,95195.45
2023-01-13T21:13:45.071Z,95193.58
2023-01-13T21:16:11.479Z,95197.32
2023-01-13T21:18:37.800Z,95200.95
2023-01-13T21:21:04.255Z,95203.30
2023-01-13T21:23:30.638Z,95202.23
2023-01-13T21:25:57.064Z,95206.23
2023-01-13T21:28:23.396Z,95206.23
2023-01-13T21:30:49.872Z,95207.16
2023-01-13T21:33:16.245Z,95203.30
2023-01-13T21:35:42.626Z,95203.30
2023-01-13T21:38:08.984Z,95210.34
2023-01-13T21:40:35.389Z,95209.52
2023-01-13T21:43:03.323Z,95208.58
2023-01-13T21:45:28.251Z,95206.47
2023-01-13T21:47:54.589Z,95209.97
2023-01-13T21:50:21.050Z,95216.06
2023-01-13T21:52:47.544Z,95218.53
2023-01-13T21:55:13.922Z,95215.36
2023-01-13T21:57:40.382Z,95222.63
2023-01-13T22:00:06.799Z,95213.25
2023-01-13T22:02:33.242Z,95213.38
2023-01-13T22:04:59.587Z,95217.02
2023-01-13T22:07:25.975Z,95215.59
2023-01-13T22:09:52.367Z,95216.98
2023-01-13T22:12:18.758Z,95210.67
2023-01-13T22:14:45.158Z,95207.14
2023-01-13T22:17:11.498Z,95207.50
2023-01-13T22:19:37.962Z,95205.63
2023-01-13T22:22:04.343Z,95203.64
2023-01-13T22:24:30.724Z,95204.23
2023-01-13T22:26:57.077Z,95204.33
2023-01-13T22:29:23.503Z,95205.39
2023-01-13T22:31:49.885Z,95200.60
2023-01-13T22:34:16.373Z,95204.80
2023-01-13T22:36:42.755Z,95194.16
2023-01-13T22:39:09.191Z,95191.19
2023-01-13T22:41:35.475Z,95198.09
2023-01-13T22:44:02.006Z,95191.91
2023-01-13T22:46:28.348Z,95191.81
2023-01-13T22:48:54.834Z,95192.37
2023-01-13T22:51:21.177Z,95190.59
2023-01-13T22:53:47.565Z,95190.59
2023-01-13T22:56:14.086Z,95195.38
2023-01-13T22:58:40.525Z,95195.52
2023-01-13T23:01:06.925Z,95195.98
2023-01-13T23:03:33.387Z,95193.41
2023-01-13T23:05:59.695Z,95190.13
2023-01-13T23:08:26.126Z,95191.16
2023-01-13T23:10:52.490Z,95194.09
2023-01-13T23:13:18.888Z,95192.94
2023-01-13T23:15:45.285Z,95190.13
2023-01-13T23:18:11.761Z,95189.67
2023-01-13T23:20:38.136Z,95193.53
2023-01-13T23:23:04.512Z,95195.39
2023-01-13T23:25:30.863Z,95194.33
2023-01-13T23:27:57.261Z,95190.70
2023-01-13T23:30:23.601Z,95182.14
2023-01-13T23:32:49.990Z,95186.73
2023-01-13T23:35:16.449Z,95182.50
2023-01-13T23:37:42.966Z,95184.39
2023-01-13T23:40:09.389Z,95185.55
2023-01-13T23:42:35.764Z,95185.45
2023-01-13T23:45:02.116Z,95180.75
2023-01-13T23:47:28.495Z,95182.73
2023-01-13T23:49:54.836Z,95185.67
2023-01-13T23:52:21.225Z,95187.42
2023-01-13T23:54:47.664Z,95182.73
2023-01-13T23:57:14.052Z,95180.72
2023-01-13T23:59:40.421Z,95177.36
